Time;durP1;ratioP1;P1;durP2;ratioP2;P2;SDS_P1;SDS_P2;PMS_P1;PMS_P2;Temp;Humidity;BMP_temperature;BMP_pressure;BME280_temperature;BME280_humidity;BME280_pressure;Samples;Min_cycle;Max_cycle;Signal;HPM_P1;HPM_P2
2023/06/28 00:01:24;;;;;;;17.58;7.15;;;13.10;94.70;;;;;;5020698;28;20039;-68
2023/06/28 00:03:50;;;;;;;18.65;7.38;;;13.10;95.00;;;;;;5025374;28;20033;-68
2023/06/28 00:06:15;;;;;;;26.58;7.45;;;13.10;94.90;;;;;;5022667;28;20393;-70
2023/06/28 00:08:41;;;;;;;18.70;7.70;;;13.10;95.00;;;;;;5024578;28;20099;-68
2023/06/28 00:11:09;;;;;;;18.88;7.10;;;13.10;95.00;;;;;;5011036;28;20021;-69
2023/06/28 00:13:36;;;;;;;16.85;6.93;;;13.10;94.90;;;;;;5026519;28;20549;-69
2023/06/28 00:16:02;;;;;;;13.40;6.97;;;13.10;94.80;;;;;;5023847;28;20033;-69
2023/06/28 00:18:29;;;;;;;17.50;7.13;;;13.10;95.00;;;;;;5010230;28;20029;-69
2023/06/28 00:20:55;;;;;;;16.83;6.70;;;13.00;95.00;;;;;;5023481;28;20492;-69
2023/06/28 00:23:20;;;;;;;17.27;7.60;;;13.10;95.20;;;;;;5022078;28;20073;-68
2023/06/28 00:25:45;;;;;;;16.95;7.32;;;13.00;95.10;;;;;;5025127;28;20136;-69
2023/06/28 00:28:11;;;;;;;22.08;7.00;;;13.00;95.10;;;;;;5011729;28;20456;-68
2023/06/28 00:30:37;;;;;;;18.33;6.32;;;13.00;95.20;;;;;;5023595;28;20213;-69
2023/06/28 00:33:02;;;;;;;16.38;6.20;;;13.00;95.00;;;;;;5010624;28;20041;-68
2023/06/28 00:35:28;;;;;;;16.80;6.53;;;13.00;95.20;;;;;;5027623;28;20046;-69
2023/06/28 00:37:53;;;;;;;21.48;6.50;;;12.90;95.30;;;;;;5026910;28;20347;-69
2023/06/28 00:40:19;;;;;;;12.55;6.20;;;12.90;95.30;;;;;;5022970;28;20442;-69
2023/06/28 00:42:44;;;;;;;18.92;6.88;;;12.90;95.50;;;;;;5027262;28;20029;-68
2023/06/28 00:45:13;;;;;;;18.40;6.68;;;12.90;95.20;;;;;;5027339;28;20349;-69
2023/06/28 00:47:39;;;;;;;16.10;6.43;;;12.90;95.50;;;;;;5027960;28;20053;-70
2023/06/28 00:50:06;;;;;;;20.63;7.45;;;13.00;95.40;;;;;;5023793;28;20326;-69
2023/06/28 00:52:31;;;;;;;17.55;6.85;;;13.00;95.40;;;;;;5026378;28;20422;-68
2023/06/28 00:54:59;;;;;;;18.60;6.30;;;13.00;95.30;;;;;;5026606;28;20048;-69
2023/06/28 00:57:25;;;;;;;14.02;6.43;;;13.00;95.40;;;;;;5022428;28;20093;-68
2023/06/28 00:59:52;;;;;;;17.88;6.80;;;13.00;95.40;;;;;;5026322;28;20058;-69
2023/06/28 01:02:18;;;;;;;10.10;5.90;;;13.00;95.30;;;;;;5026658;28;20436;-68
2023/06/28 01:04:43;;;;;;;18.10;6.53;;;13.00;95.40;;;;;;5025922;28;20104;-69
2023/06/28 01:07:10;;;;;;;16.15;6.18;;;13.00;95.50;;;;;;5000828;28;21220;-69
2023/06/28 01:09:36;;;;;;;16.70;6.75;;;13.00;95.40;;;;;;5010901;28;20044;-70
2023/06/28 01:12:02;;;;;;;16.98;6.30;;;13.00;95.50;;;;;;5027974;28;20105;-68
2023/06/28 01:14:28;;;;;;;16.98;6.50;;;13.00;95.50;;;;;;5025615;28;20333;-68
2023/06/28 01:16:54;;;;;;;16.88;6.03;;;13.00;95.50;;;;;;5022310;28;20033;-68
2023/06/28 01:19:23;;;;;;;23.88;6.75;;;12.90;95.50;;;;;;5026466;28;20108;-70
2023/06/28 01:22:02;;;;;;;17.17;6.35;;;12.90;95.70;;;;;;5025391;28;20034;-69
2023/06/28 01:24:28;;;;;;;15.82;6.47;;;12.90;95.80;;;;;;5020212;28;20146;-69
2023/06/28 01:26:58;;;;;;;17.05;6.22;;;12.90;95.80;;;;;;5025571;28;20037;-68
2023/06/28 01:29:24;;;;;;;19.85;6.63;;;12.80;95.80;;;;;;5023820;28;20389;-72
2023/06/28 01:31:54;;;;;;;13.85;6.50;;;12.90;95.90;;;;;;5025854;28;20037;-69
2023/06/28 01:34:22;;;;;;;14.73;6.50;;;12.90;96.00;;;;;;5024960;28;20116;-68
2023/06/28 01:36:49;;;;;;;17.70;6.47;;;12.90;95.80;;;;;;5024073;28;20084;-70
2023/06/28 01:39:17;;;;;;;18.13;6.40;;;12.80;95.90;;;;;;5024733;28;20044;-69
2023/06/28 01:41:44;;;;;;;19.85;6.35;;;12.80;96.00;;;;;;5024566;28;20036;-68
2023/06/28 01:44:10;;;;;;;14.82;6.03;;;12.70;96.20;;;;;;5012121;28;20291;-68
2023/06/28 01:46:35;;;;;;;17.17;6.07;;;12.80;96.30;;;;;;5022099;28;20039;-68
2023/06/28 01:49:01;;;;;;;11.90;6.47;;;12.80;96.30;;;;;;5025533;28;20057;-69
2023/06/28 01:51:27;;;;;;;14.90;6.30;;;12.70;96.20;;;;;;5023148;28;20101;-68
2023/06/28 01:53:53;;;;;;;16.55;6.80;;;12.70;96.20;;;;;;5008375;28;20327;-69
2023/06/28 01:56:18;;;;;;;17.17;6.95;;;12.70;96.20;;;;;;5034565;28;20529;-72
2023/06/28 01:58:43;;;;;;;15.90;6.43;;;12.70;96.30;;;;;;5019322;28;20040;-68
2023/06/28 02:01:09;;;;;;;23.05;6.57;;;12.70;96.30;;;;;;5025189;28;20052;-68
2023/06/28 02:03:35;;;;;;;16.75;6.03;;;12.70;96.30;;;;;;5027208;28;20060;-69
2023/06/28 02:06:00;;;;;;;15.10;6.47;;;12.60;96.20;;;;;;5024698;28;20414;-69
2023/06/28 02:08:26;;;;;;;15.80;7.25;;;12.60;96.30;;;;;;5020211;28;20280;-69
2023/06/28 02:10:51;;;;;;;15.63;6.75;;;12.60;96.50;;;;;;5022947;28;20025;-68
2023/06/28 02:13:17;;;;;;;23.13;7.05;;;12.60;96.40;;;;;;5020783;28;20422;-72
2023/06/28 02:15:42;;;;;;;16.33;6.63;;;12.60;96.50;;;;;;5018283;28;20125;-69
2023/06/28 02:18:07;;;;;;;11.40;5.97;;;12.70;96.40;;;;;;5025733;28;20055;-69
2023/06/28 02:20:33;;;;;;;21.88;6.47;;;12.60;96.50;;;;;;5002690;28;20426;-69
2023/06/28 02:22:58;;;;;;;13.52;6.15;;;12.60;96.50;;;;;;5024182;28;20064;-69
2023/06/28 02:25:24;;;;;;;15.10;6.70;;;12.60;96.60;;;;;;5022755;28;20109;-68
2023/06/28 02:27:49;;;;;;;16.83;7.07;;;12.50;96.60;;;;;;5025149;28;20053;-70
2023/06/28 02:30:15;;;;;;;11.50;6.38;;;12.60;96.50;;;;;;5025416;28;20326;-68
2023/06/28 02:32:40;;;;;;;14.65;5.95;;;12.50;96.70;;;;;;5019406;28;20033;-68
2023/06/28 02:35:06;;;;;;;14.13;6.60;;;12.50;96.60;;;;;;5028998;28;20040;-69
2023/06/28 02:37:31;;;;;;;18.40;7.60;;;12.60;96.70;;;;;;5009370;28;20511;-69
2023/06/28 02:39:57;;;;;;;13.82;6.82;;;12.50;96.60;;;;;;5026479;28;20041;-68
2023/06/28 02:42:22;;;;;;;17.88;7.43;;;12.50;96.60;;;;;;5027484;28;20405;-68
2023/06/28 02:44:48;;;;;;;20.45;6.90;;;12.50;96.60;;;;;;5025808;28;20037;-69
2023/06/28 02:47:13;;;;;;;22.88;6.57;;;12.50;96.60;;;;;;5027410;28;20087;-68
2023/06/28 02:49:39;;;;;;;15.52;6.85;;;12.40;96.80;;;;;;5023448;28;20036;-72
2023/06/28 02:52:05;;;;;;;16.10;6.97;;;12.30;96.70;;;;;;5027369;28;20025;-69
2023/06/28 02:54:30;;;;;;;17.75;7.55;;;12.30;96.80;;;;;;5006528;28;20506;-68
2023/06/28 02:56:56;;;;;;;17.00;7.97;;;12.30;96.80;;;;;;5025998;28;20102;-69
2023/06/28 02:59:21;;;;;;;14.80;7.18;;;12.30;96.80;;;;;;5021870;28;20448;-70
2023/06/28 03:01:46;;;;;;;14.40;6.85;;;12.30;96.90;;;;;;5022944;28;20033;-68
2023/06/28 03:04:12;;;;;;;18.40;6.68;;;12.30;96.90;;;;;;5023624;28;20072;-69
2023/06/28 03:06:39;;;;;;;14.45;7.22;;;12.20;96.80;;;;;;5020121;28;20041;-69
2023/06/28 03:09:04;;;;;;;16.45;7.88;;;12.30;97.00;;;;;;5024060;28;20058;-69
2023/06/28 03:11:30;;;;;;;13.80;8.18;;;12.20;96.90;;;;;;5006731;28;20048;-68
2023/06/28 03:13:55;;;;;;;16.88;7.38;;;12.20;96.90;;;;;;5024725;28;20033;-69
2023/06/28 03:16:22;;;;;;;17.17;7.18;;;12.30;97.10;;;;;;5014701;28;20147;-68
2023/06/28 03:18:48;;;;;;;19.95;8.60;;;12.20;97.00;;;;;;5018031;28;20037;-69
2023/06/28 03:21:13;;;;;;;14.45;8.25;;;12.20;97.00;;;;;;5019654;28;20030;-70
2023/06/28 03:23:39;;;;;;;20.00;8.40;;;12.20;97.00;;;;;;5021477;28;20411;-69
2023/06/28 03:26:04;;;;;;;16.70;8.15;;;12.20;97.00;;;;;;5007346;28;20323;-69
2023/06/28 03:28:30;;;;;;;20.77;8.50;;;12.20;96.90;;;;;;5022541;28;20091;-70
2023/06/28 03:30:56;;;;;;;19.02;7.88;;;12.20;97.10;;;;;;5019600;28;20045;-69
2023/06/28 03:33:22;;;;;;;15.88;8.25;;;12.20;97.10;;;;;;5024658;28;20370;-68
2023/06/28 03:35:47;;;;;;;18.77;8.23;;;12.10;97.10;;;;;;5021154;28;20051;-70
2023/06/28 03:38:13;;;;;;;15.43;8.35;;;12.10;97.20;;;;;;5021682;28;20047;-68
2023/06/28 03:40:38;;;;;;;23.52;8.00;;;12.10;97.20;;;;;;5023570;28;20174;-68
2023/06/28 03:43:03;;;;;;;24.05;9.32;;;12.20;97.30;;;;;;5023116;28;20036;-68
2023/06/28 03:45:29;;;;;;;16.58;8.50;;;12.10;97.20;;;;;;5023007;28;20147;-70
2023/06/28 03:47:54;;;;;;;18.05;8.32;;;12.10;97.20;;;;;;4971456;28;993994;-68
2023/06/28 03:50:20;;;;;;;18.50;8.10;;;12.10;97.30;;;;;;5018457;28;20033;-69
2023/06/28 03:52:46;;;;;;;20.50;8.68;;;12.10;97.40;;;;;;5015877;28;20029;-70
2023/06/28 03:55:11;;;;;;;16.98;8.77;;;12.20;97.50;;;;;;5005439;28;20034;-69
2023/06/28 03:57:37;;;;;;;16.45;8.02;;;12.20;97.40;;;;;;5022721;28;20018;-68
2023/06/28 04:00:07;;;;;;;22.40;9.13;;;12.10;97.40;;;;;;5024720;28;20041;-69
2023/06/28 04:02:32;;;;;;;24.13;8.70;;;12.10;97.50;;;;;;5019083;28;20314;-69
2023/06/28 04:04:58;;;;;;;15.00;8.88;;;12.30;97.60;;;;;;5016996;28;20059;-69
2023/06/28 04:07:24;;;;;;;17.08;9.43;;;12.30;97.50;;;;;;5028281;28;20037;-68
2023/06/28 04:09:51;;;;;;;19.48;9.82;;;12.30;97.50;;;;;;5026014;28;20157;-69
2023/06/28 04:12:16;;;;;;;15.00;8.40;;;12.30;97.50;;;;;;5021193;28;20032;-70
2023/06/28 04:14:42;;;;;;;19.25;9.35;;;12.40;97.70;;;;;;5017207;28;20033;-68
2023/06/28 04:17:07;;;;;;;21.02;9.63;;;12.40;97.70;;;;;;5006929;28;20576;-70
2023/06/28 04:19:33;;;;;;;18.23;9.05;;;12.40;97.60;;;;;;5024327;28;20029;-69
2023/06/28 04:21:59;;;;;;;14.60;9.57;;;12.50;97.60;;;;;;5023845;28;20326;-69
2023/06/28 04:24:24;;;;;;;25.60;9.77;;;12.50;97.60;;;;;;5029231;28;20115;-68
2023/06/28 04:26:50;;;;;;;20.85;9.48;;;12.60;97.60;;;;;;5022646;28;20038;-69
2023/06/28 04:29:15;;;;;;;17.92;9.20;;;12.60;97.50;;;;;;5032906;28;20065;-68
2023/06/28 04:31:41;;;;;;;26.85;10.07;;;12.60;97.50;;;;;;5021496;28;20038;-66
2023/06/28 04:34:07;;;;;;;19.38;9.60;;;12.70;97.40;;;;;;5028227;28;20040;-66
2023/06/28 04:36:32;;;;;;;22.50;9.55;;;12.70;97.50;;;;;;5026617;28;20123;-66
2023/06/28 04:38:58;;;;;;;27.58;9.45;;;12.80;97.40;;;;;;5027507;28;20040;-65
2023/06/28 04:41:25;;;;;;;20.50;9.80;;;12.80;97.40;;;;;;5029562;28;20033;-65
2023/06/28 04:43:55;;;;;;;23.10;9.00;;;12.90;97.30;;;;;;5030505;28;20025;-65
2023/06/28 04:46:27;;;;;;;22.10;9.30;;;12.90;97.40;;;;;;5021964;28;20380;-66
2023/06/28 04:48:54;;;;;;;18.88;8.05;;;13.00;97.20;;;;;;5017551;28;20049;-64
2023/06/28 04:51:20;;;;;;;23.67;9.73;;;13.00;97.20;;;;;;5018260;28;20548;-64
2023/06/28 04:53:46;;;;;;;18.80;8.88;;;13.10;97.20;;;;;;5018253;28;20132;-65
2023/06/28 04:56:12;;;;;;;22.13;8.48;;;13.10;97.10;;;;;;5018697;28;20076;-65
2023/06/28 04:58:38;;;;;;;18.63;8.38;;;13.20;97.10;;;;;;5029457;28;20056;-66
2023/06/28 05:01:06;;;;;;;25.63;9.40;;;13.20;97.00;;;;;;5028695;28;20089;-65
2023/06/28 05:03:31;;;;;;;23.30;9.30;;;13.30;97.00;;;;;;5028583;28;20469;-66
2023/06/28 05:05:57;;;;;;;18.33;8.70;;;13.30;97.00;;;;;;5027149;28;20038;-66
2023/06/28 05:08:22;;;;;;;17.15;8.20;;;13.40;96.90;;;;;;5033244;28;20349;-66
2023/06/28 05:10:48;;;;;;;23.10;8.52;;;13.50;96.90;;;;;;5027823;28;20025;-66
2023/06/28 05:13:14;;;;;;;18.58;8.07;;;13.50;96.80;;;;;;5031515;28;20108;-68
2023/06/28 05:15:39;;;;;;;18.00;8.43;;;13.60;96.70;;;;;;5023712;28;20061;-66
2023/06/28 05:18:04;;;;;;;17.38;8.75;;;13.70;96.80;;;;;;5007014;28;20105;-66
2023/06/28 05:20:31;;;;;;;15.27;7.80;;;13.70;96.70;;;;;;5034317;28;20061;-66
2023/06/28 05:23:12;;;;;;;17.73;7.05;;;13.80;96.60;;;;;;5026147;28;20116;-66
2023/06/28 05:25:38;;;;;;;22.00;8.13;;;13.90;96.50;;;;;;5025659;28;20140;-67
2023/06/28 05:28:05;;;;;;;24.10;7.88;;;14.00;96.30;;;;;;5025003;28;20105;-66
2023/06/28 05:30:31;;;;;;;14.90;7.95;;;14.10;96.40;;;;;;5026048;28;20025;-66
2023/06/28 05:32:58;;;;;;;14.45;7.07;;;14.10;96.30;;;;;;5026169;28;20355;-66
2023/06/28 05:35:24;;;;;;;15.05;7.63;;;14.20;95.80;;;;;;5020976;28;20390;-65
2023/06/28 05:37:49;;;;;;;22.55;7.40;;;14.30;95.70;;;;;;5021806;28;20029;-68
2023/06/28 05:40:15;;;;;;;21.30;7.50;;;14.40;95.50;;;;;;5027549;28;20104;-66
2023/06/28 05:42:40;;;;;;;13.05;6.20;;;14.50;95.40;;;;;;5027232;28;20168;-66
2023/06/28 05:45:07;;;;;;;13.27;6.60;;;14.60;95.40;;;;;;5022084;28;20053;-66
2023/06/28 05:47:32;;;;;;;12.55;6.78;;;14.70;95.10;;;;;;5018905;28;20378;-66
2023/06/28 05:49:58;;;;;;;17.55;6.07;;;14.80;94.60;;;;;;5003334;28;20095;-67
2023/06/28 05:52:23;;;;;;;8.85;5.75;;;14.80;94.40;;;;;;5021676;28;20338;-66
2023/06/28 05:54:48;;;;;;;8.50;5.32;;;14.90;94.50;;;;;;5016708;28;20048;-66
2023/06/28 05:57:14;;;;;;;16.35;6.00;;;15.00;94.40;;;;;;5026178;28;20025;-66
2023/06/28 05:59:39;;;;;;;14.13;4.85;;;15.00;93.90;;;;;;5028005;28;20033;-67
2023/06/28 06:02:06;;;;;;;15.18;5.97;;;15.20;94.00;;;;;;5024163;28;20049;-66
2023/06/28 06:04:31;;;;;;;14.52;5.10;;;15.30;93.40;;;;;;5022845;28;20029;-66
2023/06/28 06:06:57;;;;;;;17.27;6.20;;;15.40;93.20;;;;;;5029436;28;20151;-66
2023/06/28 06:09:22;;;;;;;19.58;5.47;;;15.50;93.00;;;;;;5029383;28;20158;-66
2023/06/28 06:11:48;;;;;;;9.80;4.32;;;15.60;92.90;;;;;;5042747;28;20029;-66
2023/06/28 06:14:13;;;;;;;15.07;4.80;;;15.70;92.30;;;;;;5032301;28;20380;-66
2023/06/28 06:16:39;;;;;;;10.70;4.15;;;15.80;92.30;;;;;;5030287;28;20029;-65
2023/06/28 06:19:04;;;;;;;13.45;4.95;;;15.90;91.90;;;;;;5023514;28;20056;-66
2023/06/28 06:21:30;;;;;;;15.10;4.30;;;16.00;91.40;;;;;;5021194;28;20142;-65
2023/06/28 06:23:55;;;;;;;12.25;4.07;;;16.10;91.50;;;;;;5019294;28;20041;-67
2023/06/28 06:26:21;;;;;;;10.68;3.72;;;16.40;91.40;;;;;;5024736;28;20425;-66
2023/06/28 06:28:46;;;;;;;13.43;4.43;;;16.40;90.80;;;;;;5024563;28;20063;-65
2023/06/28 06:31:14;;;;;;;18.13;4.35;;;16.70;90.00;;;;;;5022708;28;20188;-67
2023/06/28 06:33:40;;;;;;;13.82;3.90;;;16.60;89.70;;;;;;5029115;28;20242;-67
2023/06/28 06:36:05;;;;;;;11.48;3.88;;;16.80;89.80;;;;;;5021042;28;20865;-67
2023/06/28 06:38:31;;;;;;;10.30;3.17;;;16.80;88.50;;;;;;5021693;28;20024;-68
2023/06/28 06:40:56;;;;;;;10.40;3.60;;;17.00;88.00;;;;;;5010172;28;20025;-68
2023/06/28 06:43:22;;;;;;;10.88;3.80;;;17.00;87.60;;;;;;5027721;28;20033;-69
2023/06/28 06:45:47;;;;;;;7.78;3.13;;;17.10;86.80;;;;;;5021921;28;20074;-67
2023/06/28 06:48:13;;;;;;;10.38;3.42;;;17.10;86.80;;;;;;5026046;28;20124;-66
2023/06/28 06:50:38;;;;;;;13.38;3.35;;;17.20;86.10;;;;;;5022613;28;20026;-68
2023/06/28 06:53:04;;;;;;;12.93;3.22;;;17.40;85.60;;;;;;5023696;28;21673;-67
2023/06/28 06:55:29;;;;;;;8.45;2.72;;;17.80;85.40;;;;;;5019764;28;20109;-66
2023/06/28 06:57:55;;;;;;;8.77;2.63;;;17.80;83.70;;;;;;5024743;28;20028;-66
2023/06/28 07:00:20;;;;;;;14.20;2.53;;;18.00;84.00;;;;;;5029319;28;20047;-66
2023/06/28 07:02:46;;;;;;;8.63;2.75;;;18.40;83.70;;;;;;5028050;28;20124;-67
2023/06/28 07:05:11;;;;;;;8.70;2.33;;;18.50;83.20;;;;;;5019208;28;20180;-67
2023/06/28 07:07:37;;;;;;;5.97;2.50;;;18.60;81.70;;;;;;5025992;28;20045;-67
2023/06/28 07:10:02;;;;;;;8.88;2.08;;;18.10;81.30;;;;;;5024625;28;20030;-67
2023/06/28 07:12:28;;;;;;;9.05;1.88;;;18.50;80.30;;;;;;5023913;28;20449;-66
2023/06/28 07:14:53;;;;;;;7.40;2.17;;;18.50;80.00;;;;;;5021202;28;20099;-66
2023/06/28 07:17:19;;;;;;;9.20;2.17;;;18.50;80.00;;;;;;5020186;28;20033;-67
2023/06/28 07:19:44;;;;;;;9.32;2.25;;;18.70;79.10;;;;;;5020020;28;20028;-66
2023/06/28 07:22:11;;;;;;;11.02;1.83;;;18.90;78.40;;;;;;5023537;28;20052;-67
2023/06/28 07:24:36;;;;;;;7.72;2.53;;;19.10;79.10;;;;;;5036076;28;20075;-69
2023/06/28 07:27:02;;;;;;;8.02;2.03;;;19.30;77.70;;;;;;5017796;28;20029;-67
2023/06/28 07:29:27;;;;;;;7.40;1.98;;;18.90;78.40;;;;;;5024164;28;20551;-67
2023/06/28 07:31:53;;;;;;;9.25;2.25;;;18.90;78.90;;;;;;5022870;28;20422;-67
2023/06/28 07:34:19;;;;;;;9.60;2.35;;;19.10;78.30;;;;;;5024987;28;20029;-69
2023/06/28 07:36:45;;;;;;;6.47;2.03;;;19.40;77.50;;;;;;5022968;28;20106;-66
2023/06/28 07:39:10;;;;;;;7.80;2.13;;;19.20;77.40;;;;;;5024931;28;20064;-67
2023/06/28 07:41:36;;;;;;;5.43;1.70;;;18.90;76.00;;;;;;5029911;28;20051;-68
2023/06/28 07:44:01;;;;;;;6.82;1.67;;;19.50;75.80;;;;;;5025529;28;20428;-68
2023/06/28 07:46:27;;;;;;;10.00;2.10;;;19.70;74.80;;;;;;5027860;28;20041;-66
2023/06/28 07:48:52;;;;;;;8.18;2.45;;;20.00;74.90;;;;;;5026542;28;20052;-67
2023/06/28 07:51:18;;;;;;;7.53;2.58;;;19.90;75.00;;;;;;5025779;28;20452;-66
2023/06/28 07:53:45;;;;;;;7.47;2.30;;;19.70;76.40;;;;;;5026099;28;20033;-67
2023/06/28 07:56:10;;;;;;;11.13;2.95;;;19.70;75.00;;;;;;5027035;28;20017;-68
2023/06/28 07:58:36;;;;;;;10.90;2.53;;;19.40;76.20;;;;;;5033512;28;20060;-67
2023/06/28 08:01:02;;;;;;;8.60;1.75;;;19.30;77.10;;;;;;5027427;28;20033;-67
2023/06/28 08:03:28;;;;;;;8.23;2.20;;;19.80;75.20;;;;;;5028620;28;20394;-67
2023/06/28 08:05:53;;;;;;;9.30;2.15;;;20.20;72.40;;;;;;5022905;28;20095;-68
2023/06/28 08:08:19;;;;;;;8.75;2.17;;;20.50;72.70;;;;;;5026310;28;20583;-67
2023/06/28 08:10:44;;;;;;;8.40;1.92;;;20.10;72.30;;;;;;5030128;28;20026;-69
2023/06/28 08:13:09;;;;;;;8.23;1.60;;;20.00;73.90;;;;;;5023837;28;20330;-68
2023/06/28 08:15:36;;;;;;;4.72;2.28;;;19.70;75.00;;;;;;5029384;28;20050;-68
2023/06/28 08:18:03;;;;;;;8.32;2.28;;;19.30;75.40;;;;;;5028671;28;20021;-68
2023/06/28 08:20:30;;;;;;;7.95;2.20;;;19.20;75.40;;;;;;5020653;28;20021;-71
2023/06/28 08:22:55;;;;;;;7.80;1.95;;;19.50;75.40;;;;;;5024598;28;20033;-68
2023/06/28 08:25:20;;;;;;;6.80;2.10;;;20.20;73.60;;;;;;5024701;28;20111;-69
2023/06/28 08:27:46;;;;;;;9.35;2.67;;;20.50;73.20;;;;;;5027563;28;20148;-70
2023/06/28 08:30:12;;;;;;;7.85;2.13;;;20.40;71.60;;;;;;5021278;28;20366;-69
2023/06/28 08:32:37;;;;;;;8.35;2.58;;;20.00;72.70;;;;;;5030949;28;20082;-68
2023/06/28 08:35:04;;;;;;;9.70;2.33;;;19.90;73.00;;;;;;5007142;28;20124;-68
2023/06/28 08:37:34;;;;;;;12.15;2.63;;;19.80;73.40;;;;;;5019993;28;20454;-67
2023/06/28 08:40:00;;;;;;;5.67;1.97;;;19.60;74.30;;;;;;5033527;28;20109;-67
2023/06/28 08:42:28;;;;;;;11.50;2.05;;;19.50;74.70;;;;;;5030537;28;20285;-69
2023/06/28 08:44:56;;;;;;;7.75;2.45;;;19.50;74.10;;;;;;5032797;28;20021;-68
2023/06/28 08:47:21;;;;;;;6.55;1.83;;;20.40;74.80;;;;;;5027579;28;20104;-68
2023/06/28 08:49:47;;;;;;;7.28;2.05;;;20.60;70.70;;;;;;5011741;28;20025;-68
2023/06/28 08:52:15;;;;;;;9.02;2.00;;;20.90;67.90;;;;;;5028202;28;20030;-67
2023/06/28 08:54:42;;;;;;;7.68;1.77;;;20.70;69.70;;;;;;5035708;28;20040;-67
2023/06/28 08:57:08;;;;;;;8.15;1.70;;;21.00;68.20;;;;;;5036825;28;20056;-67
2023/06/28 08:59:34;;;;;;;10.40;2.30;;;21.40;66.40;;;;;;5024686;28;20104;-71
2023/06/28 09:02:01;;;;;;;7.30;1.80;;;21.70;66.30;;;;;;5036550;28;20501;-67
2023/06/28 09:04:27;;;;;;;7.53;2.00;;;21.30;67.90;;;;;;5025880;28;20032;-68
2023/06/28 09:06:53;;;;;;;9.95;1.92;;;21.10;69.70;;;;;;5019042;28;20154;-67
2023/06/28 09:09:18;;;;;;;8.15;2.08;;;21.00;69.20;;;;;;5024764;28;20113;-71
2023/06/28 09:11:44;;;;;;;5.53;1.98;;;20.50;68.50;;;;;;5028589;28;20080;-68
2023/06/28 09:14:11;;;;;;;6.75;1.63;;;20.30;69.60;;;;;;5034577;28;20394;-67
2023/06/28 09:16:36;;;;;;;9.80;1.98;;;20.40;71.20;;;;;;5020085;28;20377;-68
2023/06/28 09:19:02;;;;;;;6.68;1.70;;;20.30;71.90;;;;;;5027656;28;20029;-68
2023/06/28 09:21:31;;;;;;;5.03;1.73;;;20.50;70.90;;;;;;5025865;28;20029;-67
2023/06/28 09:23:58;;;;;;;6.35;2.00;;;21.30;69.50;;;;;;5029469;28;20029;-66
2023/06/28 09:26:33;;;;;;;8.82;1.80;;;21.50;68.20;;;;;;5022133;28;20062;-70
2023/06/28 09:29:10;;;;;;;5.78;1.92;;;22.00;67.70;;;;;;5032495;28;20044;-67
2023/06/28 09:31:40;;;;;;;7.80;2.10;;;22.00;66.40;;;;;;5028304;28;20103;-67
2023/06/28 09:34:06;;;;;;;8.97;2.00;;;21.50;67.00;;;;;;5019819;28;20112;-68
2023/06/28 09:36:37;;;;;;;6.97;1.63;;;21.00;67.30;;;;;;5021142;28;20117;-67
2023/06/28 09:39:04;;;;;;;6.70;2.33;;;21.00;65.80;;;;;;5030735;28;20124;-67
2023/06/28 09:41:40;;;;;;;7.38;1.70;;;21.00;66.50;;;;;;5028265;28;20022;-67
2023/06/28 09:44:10;;;;;;;4.97;1.60;;;21.60;65.40;;;;;;5027064;28;20109;-67
2023/06/28 09:46:43;;;;;;;5.00;1.50;;;22.00;63.60;;;;;;5027778;28;20042;-69
2023/06/28 09:49:20;;;;;;;6.95;1.88;;;22.40;64.20;;;;;;5018886;28;20151;-67
2023/06/28 09:51:53;;;;;;;4.90;1.35;;;22.10;64.70;;;;;;5022408;28;20048;-67
2023/06/28 09:54:19;;;;;;;4.25;1.63;;;21.50;64.60;;;;;;5020420;28;20335;-67
2023/06/28 09:56:45;;;;;;;5.70;1.88;;;21.00;66.30;;;;;;5027307;28;20087;-68
2023/06/28 09:59:10;;;;;;;4.30;1.70;;;20.90;66.40;;;;;;5030280;28;20026;-67
2023/06/28 10:01:39;;;;;;;4.22;1.55;;;21.00;65.30;;;;;;5024606;28;20043;-67
2023/06/28 10:04:08;;;;;;;5.38;1.40;;;21.90;63.10;;;;;;5026051;28;20029;-67
2023/06/28 10:06:35;;;;;;;5.40;1.38;;;21.70;63.10;;;;;;5022770;28;20115;-67
2023/06/28 10:09:01;;;;;;;5.80;1.42;;;21.80;64.60;;;;;;5027379;28;20073;-69
2023/06/28 10:11:31;;;;;;;6.30;1.63;;;22.00;61.50;;;;;;5023129;28;20128;-67
2023/06/28 10:13:58;;;;;;;7.15;1.70;;;22.30;60.30;;;;;;5034959;28;20017;-71
2023/06/28 10:16:30;;;;;;;5.90;1.70;;;22.50;59.90;;;;;;5016673;28;20095;-67
2023/06/28 10:18:55;;;;;;;8.95;1.45;;;22.70;57.70;;;;;;5023415;28;20120;-68
2023/06/28 10:21:21;;;;;;;3.60;1.38;;;23.50;58.10;;;;;;5024813;28;20078;-67
2023/06/28 10:23:47;;;;;;;7.05;1.45;;;23.50;58.10;;;;;;5023619;28;20163;-67
2023/06/28 10:26:14;;;;;;;8.20;1.50;;;23.40;59.50;;;;;;5033156;28;20386;-67
2023/06/28 10:28:40;;;;;;;4.50;1.60;;;23.30;58.10;;;;;;5026721;28;20089;-67
2023/06/28 10:31:06;;;;;;;4.53;1.30;;;23.20;58.20;;;;;;5032310;28;20028;-68
2023/06/28 10:33:36;;;;;;;6.28;1.50;;;23.60;56.80;;;;;;5022065;28;20512;-68
2023/06/28 10:36:03;;;;;;;6.82;1.77;;;23.90;56.80;;;;;;5023423;28;20033;-67
2023/06/28 10:38:33;;;;;;;5.00;1.40;;;23.40;56.20;;;;;;5020014;28;20471;-67
2023/06/28 10:41:00;;;;;;;3.97;1.20;;;23.40;55.50;;;;;;5003493;28;20459;-69
2023/06/28 10:43:26;;;;;;;4.25;1.13;;;23.20;56.70;;;;;;5026085;28;20419;-68
2023/06/28 10:45:55;;;;;;;6.03;1.50;;;23.20;53.70;;;;;;5023243;28;20041;-69
2023/06/28 10:48:21;;;;;;;4.57;1.48;;;23.50;53.40;;;;;;5028535;28;20041;-68
2023/06/28 10:50:48;;;;;;;5.03;1.27;;;23.50;54.50;;;;;;5021436;28;20033;-68
2023/06/28 10:53:27;;;;;;;6.28;1.58;;;24.00;53.90;;;;;;5022252;28;20327;-68
2023/06/28 10:56:08;;;;;;;4.68;1.45;;;23.40;55.10;;;;;;5030268;28;20037;-67
2023/06/28 10:58:54;;;;;;;;;;;23.80;54.60;;;;;;5025670;28;20445;-67
2023/06/28 11:01:36;;;;;;;4.65;1.02;;;23.60;56.20;;;;;;5020300;28;20372;-71
2023/06/28 11:04:16;;;;;;;4.90;1.50;;;24.00;54.90;;;;;;5024845;28;20116;-67
2023/06/28 11:06:42;;;;;;;4.47;1.20;;;24.10;53.00;;;;;;5025207;28;20061;-67
2023/06/28 11:09:15;;;;;;;2.85;1.20;;;24.40;52.60;;;;;;5028399;28;20053;-71
2023/06/28 11:11:57;;;;;;;5.25;1.50;;;24.50;52.00;;;;;;5024558;28;20364;-67
2023/06/28 11:14:40;;;;;;;5.35;1.65;;;24.60;50.80;;;;;;5029307;28;20299;-67
2023/06/28 11:17:13;;;;;;;4.10;1.13;;;24.70;50.70;;;;;;5028597;28;20429;-67
2023/06/28 11:19:41;;;;;;;2.97;1.00;;;25.00;50.90;;;;;;5024623;28;20022;-72
2023/06/28 11:22:06;;;;;;;4.53;1.30;;;24.60;51.30;;;;;;5028980;28;20048;-67
2023/06/28 11:24:43;;;;;;;2.72;1.10;;;24.70;49.20;;;;;;5026980;28;20033;-67
2023/06/28 11:27:19;;;;;;;4.22;1.25;;;25.10;51.20;;;;;;5021580;28;20136;-68
2023/06/28 11:29:58;;;;;;;8.27;1.20;;;25.60;47.90;;;;;;5029492;28;20366;-66
2023/06/28 11:32:26;;;;;;;2.45;1.15;;;25.50;48.10;;;;;;5027761;28;20118;-67
2023/06/28 11:34:53;;;;;;;4.70;1.40;;;25.70;48.50;;;;;;5028967;28;20061;-67
2023/06/28 11:37:21;;;;;;;5.65;1.20;;;25.90;47.60;;;;;;5032941;28;20101;-68
2023/06/28 11:39:48;;;;;;;5.22;1.30;;;24.50;49.70;;;;;;5033758;28;20454;-67
2023/06/28 11:42:14;;;;;;;4.82;1.17;;;24.60;50.50;;;;;;5020646;28;20414;-67
2023/06/28 11:44:47;;;;;;;3.65;1.10;;;24.90;51.40;;;;;;5025258;28;20067;-69
2023/06/28 11:47:20;;;;;;;3.13;0.90;;;25.30;50.20;;;;;;5020083;28;20136;-66
2023/06/28 11:49:46;;;;;;;4.35;1.00;;;25.40;50.00;;;;;;5031524;28;20021;-67
2023/06/28 11:52:16;;;;;;;2.97;1.20;;;25.50;48.40;;;;;;5030637;28;20030;-68
2023/06/28 11:54:42;;;;;;;4.20;1.45;;;25.90;46.80;;;;;;5025646;28;20052;-67
2023/06/28 11:57:08;;;;;;;4.40;1.05;;;25.80;47.50;;;;;;5019884;28;20124;-68
2023/06/28 11:59:34;;;;;;;4.80;1.30;;;26.50;48.00;;;;;;5025366;28;20108;-69
2023/06/28 12:02:05;;;;;;;2.08;0.85;;;26.70;45.50;;;;;;5019593;28;20461;-66
2023/06/28 12:04:31;;;;;;;3.53;0.90;;;26.20;46.10;;;;;;5031722;28;20449;-68
2023/06/28 12:06:59;;;;;;;4.75;1.30;;;25.60;46.10;;;;;;5029931;28;20116;-66
2023/06/28 12:09:27;;;;;;;6.93;1.25;;;25.40;47.50;;;;;;5035517;28;20095;-67
2023/06/28 12:11:59;;;;;;;2.95;1.13;;;26.50;47.10;;;;;;5027381;28;20060;-70
2023/06/28 12:14:27;;;;;;;4.55;1.13;;;26.90;46.20;;;;;;5029236;28;20017;-67
2023/06/28 12:16:53;;;;;;;2.50;0.85;;;26.80;44.90;;;;;;5017428;28;20017;-67
2023/06/28 12:19:20;;;;;;;2.53;1.20;;;27.20;43.80;;;;;;5025245;28;20465;-68
2023/06/28 12:21:46;;;;;;;5.85;0.98;;;26.20;44.10;;;;;;5021924;28;20079;-69
2023/06/28 12:24:13;;;;;;;8.68;1.48;;;26.00;45.90;;;;;;5020254;28;20374;-69
2023/06/28 12:26:38;;;;;;;5.15;1.33;;;26.50;43.40;;;;;;5018005;28;20137;-67
2023/06/28 12:29:08;;;;;;;4.78;1.20;;;26.60;45.00;;;;;;5029325;28;20216;-65
2023/06/28 12:31:48;;;;;;;4.47;1.05;;;26.60;46.10;;;;;;5032447;28;20041;-65
2023/06/28 12:34:24;;;;;;;2.53;0.90;;;26.90;43.20;;;;;;5025332;28;20025;-67
2023/06/28 12:36:55;;;;;;;4.75;1.42;;;26.50;44.60;;;;;;5014247;28;20117;-66
2023/06/28 12:39:21;;;;;;;;;;;26.60;44.60;;;;;;5027257;28;20245;-66